Time;durP1;ratioP1;P1;durP2;ratioP2;P2;SDS_P1;SDS_P2;PMS_P1;PMS_P2;Temp;Humidity;BMP_temperature;BMP_pressure;BME280_temperature;BME280_humidity;BME280_pressure;Samples;Min_cycle;Max_cycle;Signal;HPM_P1;HPM_P2
2023/11/18 00:01:34;;;;;;;7.97;4.70;;;;;;;;;;5118400;28;20217;-63
2023/11/18 00:04:03;;;;;;;6.63;4.50;;;;;;;;;;5098791;28;20209;-64
2023/11/18 00:06:32;;;;;;;9.20;5.10;;;;;;;;;;5099020;28;20274;-63
2023/11/18 00:09:00;;;;;;;8.87;5.30;;;;;;;;;;5097912;28;20212;-63
2023/11/18 00:11:28;;;;;;;7.23;4.73;;;;;;;;;;5098923;28;20228;-63
2023/11/18 00:13:57;;;;;;;8.27;4.87;;;;;;;;;;5098531;28;20197;-63
2023/11/18 00:16:26;;;;;;;11.13;6.83;;;;;;;;;;5108818;28;20608;-63
2023/11/18 00:18:55;;;;;;;11.87;7.40;;;;;;;;;;5119068;28;20200;-63
2023/11/18 00:21:23;;;;;;;10.47;6.87;;;;;;;;;;5119068;28;20316;-63
2023/11/18 00:23:53;;;;;;;8.33;5.10;;;;;;;;;;5118888;28;20650;-63
2023/11/18 00:26:21;;;;;;;6.27;5.63;;;;;;;;;;5107492;27;20691;-63
2023/11/18 00:28:49;;;;;;;7.30;5.40;;;;;;;;;;5103090;28;20198;-63
2023/11/18 00:31:18;;;;;;;7.00;5.30;;;;;;;;;;5098241;28;20230;-63
2023/11/18 00:33:47;;;;;;;6.87;4.90;;;;;;;;;;5097630;28;20661;-64
2023/11/18 00:36:16;;;;;;;7.83;5.20;;;;;;;;;;5101258;28;20209;-63
2023/11/18 00:38:44;;;;;;;6.87;5.03;;;;;;;;;;5117591;28;20296;-63
2023/11/18 00:41:13;;;;;;;7.57;4.53;;;;;;;;;;5108837;28;20220;-64
2023/11/18 00:43:41;;;;;;;6.13;4.73;;;;;;;;;;5103132;28;20193;-64
2023/11/18 00:46:09;;;;;;;8.97;5.13;;;;;;;;;;5118498;28;20204;-64
2023/11/18 00:48:38;;;;;;;10.23;6.23;;;;;;;;;;5117158;28;20197;-64
2023/11/18 00:51:08;;;;;;;8.30;5.33;;;;;;;;;;5116580;28;20328;-64
2023/11/18 00:53:36;;;;;;;8.30;6.20;;;;;;;;;;5112508;28;20228;-64
2023/11/18 00:56:07;;;;;;;10.97;6.53;;;;;;;;;;5108130;27;20223;-64
2023/11/18 00:58:40;;;;;;;7.83;6.33;;;;;;;;;;5106419;28;20201;-63
2023/11/18 01:01:08;;;;;;;7.97;6.27;;;;;;;;;;5097601;28;20240;-63
2023/11/18 01:03:37;;;;;;;7.93;5.87;;;;;;;;;;5112384;28;20258;-63
2023/11/18 01:06:06;;;;;;;7.33;5.57;;;;;;;;;;5103067;28;20722;-63
2023/11/18 01:08:35;;;;;;;8.90;5.40;;;;;;;;;;5112063;28;20248;-63
2023/11/18 01:11:05;;;;;;;7.23;5.03;;;;;;;;;;5116969;28;20736;-63
2023/11/18 01:13:33;;;;;;;14.10;5.83;;;;;;;;;;5117225;28;20648;-63
2023/11/18 01:16:02;;;;;;;8.57;5.20;;;;;;;;;;5112615;28;20205;-63
2023/11/18 01:18:31;;;;;;;11.83;7.00;;;;;;;;;;5105492;28;20220;-63
2023/11/18 01:20:59;;;;;;;10.53;7.43;;;;;;;;;;5116956;28;20713;-64
2023/11/18 01:23:27;;;;;;;12.17;6.30;;;;;;;;;;5117416;28;20197;-63
2023/11/18 01:25:57;;;;;;;10.10;6.20;;;;;;;;;;5107825;28;20197;-63
2023/11/18 01:28:29;;;;;;;9.20;6.13;;;;;;;;;;5103035;28;20208;-64
2023/11/18 01:30:57;;;;;;;10.47;6.60;;;;;;;;;;5116767;28;20201;-63
2023/11/18 01:33:26;;;;;;;14.37;6.80;;;;;;;;;;5116964;28;20204;-64
2023/11/18 01:35:54;;;;;;;8.57;6.47;;;;;;;;;;5115739;28;20201;-64
2023/11/18 01:38:23;;;;;;;6.70;5.37;;;;;;;;;;5117006;28;20274;-63
2023/11/18 01:40:51;;;;;;;7.23;5.50;;;;;;;;;;5108969;28;20675;-64
2023/11/18 01:43:22;;;;;;;8.53;5.07;;;;;;;;;;5099988;28;20193;-63
2023/11/18 01:45:50;;;;;;;8.33;5.63;;;;;;;;;;5097141;28;20204;-64
2023/11/18 01:48:18;;;;;;;8.27;5.50;;;;;;;;;;5107341;28;20581;-63
2023/11/18 01:50:47;;;;;;;9.70;6.67;;;;;;;;;;5102263;28;20260;-64
2023/11/18 01:53:15;;;;;;;8.77;6.00;;;;;;;;;;5108787;28;20201;-64
2023/11/18 01:55:44;;;;;;;9.87;6.40;;;;;;;;;;5117761;28;20249;-64
2023/11/18 01:58:13;;;;;;;9.73;7.50;;;;;;;;;;5106995;28;20198;-63
2023/11/18 02:00:42;;;;;;;10.97;6.93;;;;;;;;;;5097473;28;20225;-64
2023/11/18 02:03:11;;;;;;;11.67;7.10;;;;;;;;;;5107589;28;20196;-63
2023/11/18 02:05:42;;;;;;;11.30;6.87;;;;;;;;;;5102686;28;20547;-64
2023/11/18 02:08:13;;;;;;;14.10;7.97;;;;;;;;;;5104308;28;20316;-64
2023/11/18 02:10:47;;;;;;;11.47;8.03;;;;;;;;;;5101071;28;20202;-64
2023/11/18 02:13:20;;;;;;;12.40;7.10;;;;;;;;;;5101186;28;20206;-64
2023/11/18 02:15:50;;;;;;;13.33;8.20;;;;;;;;;;5111310;28;20282;-63
2023/11/18 02:18:19;;;;;;;10.73;7.10;;;;;;;;;;5100858;28;20202;-63
2023/11/18 02:20:48;;;;;;;13.50;7.63;;;;;;;;;;5100676;28;20270;-64
2023/11/18 02:23:17;;;;;;;13.13;7.37;;;;;;;;;;5101162;28;20205;-63
2023/11/18 02:25:47;;;;;;;11.90;7.23;;;;;;;;;;5100664;28;20205;-63
2023/11/18 02:28:15;;;;;;;10.53;6.77;;;;;;;;;;5099426;28;20221;-63
2023/11/18 02:30:45;;;;;;;8.13;6.13;;;;;;;;;;5117141;28;20217;-63
2023/11/18 02:33:18;;;;;;;11.30;6.37;;;;;;;;;;5120151;28;20204;-64
2023/11/18 02:35:48;;;;;;;9.03;6.30;;;;;;;;;;5121194;28;20238;-63
2023/11/18 02:38:19;;;;;;;10.03;6.97;;;;;;;;;;5109058;28;20202;-63
2023/11/18 02:40:51;;;;;;;8.53;6.90;;;;;;;;;;5101078;28;20208;-63
2023/11/18 02:43:19;;;;;;;12.27;7.00;;;;;;;;;;5103751;28;20205;-63
2023/11/18 02:45:48;;;;;;;14.17;7.07;;;;;;;;;;5115289;28;20201;-62
2023/11/18 02:48:18;;;;;;;10.77;7.20;;;;;;;;;;5119411;28;20224;-62
2023/11/18 02:50:46;;;;;;;9.73;6.83;;;;;;;;;;5105043;28;20755;-62
2023/11/18 02:53:15;;;;;;;11.20;7.47;;;;;;;;;;5110905;28;20228;-62
2023/11/18 02:55:43;;;;;;;9.73;7.17;;;;;;;;;;5120918;28;20292;-62
2023/11/18 02:58:12;;;;;;;12.33;6.20;;;;;;;;;;5112910;28;20568;-62
2023/11/18 03:00:41;;;;;;;11.03;7.90;;;;;;;;;;5114146;28;20207;-62
2023/11/18 03:03:09;;;;;;;10.30;7.40;;;;;;;;;;5101869;28;20217;-62
2023/11/18 03:05:37;;;;;;;9.23;6.73;;;;;;;;;;5114953;28;20216;-61
2023/11/18 03:08:07;;;;;;;9.83;6.37;;;;;;;;;;5101826;28;20223;-62
2023/11/18 03:10:35;;;;;;;16.67;7.60;;;;;;;;;;5110626;28;20254;-61
2023/11/18 03:13:04;;;;;;;9.87;6.80;;;;;;;;;;5119312;28;20695;-62
2023/11/18 03:15:34;;;;;;;9.77;7.43;;;;;;;;;;5115663;28;20223;-62
2023/11/18 03:18:02;;;;;;;8.43;7.20;;;;;;;;;;5106172;28;20276;-62
2023/11/18 03:20:30;;;;;;;9.63;7.13;;;;;;;;;;5118956;28;20564;-61
2023/11/18 03:23:00;;;;;;;11.50;7.17;;;;;;;;;;5119176;28;20220;-61
2023/11/18 03:25:29;;;;;;;10.43;7.40;;;;;;;;;;5120352;28;20223;-62
2023/11/18 03:27:57;;;;;;;13.53;7.37;;;;;;;;;;5115447;28;20311;-61
2023/11/18 03:30:26;;;;;;;11.50;7.47;;;;;;;;;;5109763;27;20205;-61
2023/11/18 03:32:56;;;;;;;10.07;7.27;;;;;;;;;;5118824;28;20691;-61
2023/11/18 03:35:24;;;;;;;10.07;7.57;;;;;;;;;;5118882;28;20205;-61
2023/11/18 03:37:53;;;;;;;11.37;7.53;;;;;;;;;;5119146;28;20236;-61
2023/11/18 03:40:21;;;;;;;10.73;6.63;;;;;;;;;;5115276;27;22609;-61
2023/11/18 03:42:50;;;;;;;7.60;6.63;;;;;;;;;;5109545;28;20304;-61
2023/11/18 03:45:19;;;;;;;10.30;6.93;;;;;;;;;;5105849;28;20224;-62
2023/11/18 03:47:47;;;;;;;11.55;7.05;;;;;;;;;;5118634;28;20205;-61
2023/11/18 03:50:17;;;;;;;9.40;5.80;;;;;;;;;;5105636;28;20237;-61
2023/11/18 03:52:45;;;;;;;7.13;5.77;;;;;;;;;;5103239;28;20249;-61
2023/11/18 03:55:14;;;;;;;7.93;5.70;;;;;;;;;;5119575;28;20211;-61
2023/11/18 03:57:42;;;;;;;8.77;6.37;;;;;;;;;;5117034;28;20206;-61
2023/11/18 04:00:11;;;;;;;9.20;6.60;;;;;;;;;;5098793;28;20538;-62
2023/11/18 04:02:39;;;;;;;7.23;6.17;;;;;;;;;;5101417;28;20679;-61
2023/11/18 04:05:09;;;;;;;8.93;6.30;;;;;;;;;;5119322;28;20679;-61
2023/11/18 04:07:41;;;;;;;7.50;5.90;;;;;;;;;;5114519;28;20253;-61
2023/11/18 04:10:11;;;;;;;9.03;6.37;;;;;;;;;;5098903;28;20232;-61
2023/11/18 04:12:39;;;;;;;7.30;6.37;;;;;;;;;;5098886;28;20249;-61
2023/11/18 04:15:10;;;;;;;11.10;6.17;;;;;;;;;;5103594;28;20216;-61
2023/11/18 04:17:40;;;;;;;9.20;6.43;;;;;;;;;;5098849;28;20214;-62
2023/11/18 04:20:12;;;;;;;7.13;5.90;;;;;;;;;;5098531;28;20288;-61
2023/11/18 04:22:42;;;;;;;10.43;6.43;;;;;;;;;;5098814;28;20229;-62
2023/11/18 04:25:11;;;;;;;7.67;5.97;;;;;;;;;;5098371;28;20553;-61
2023/11/18 04:27:42;;;;;;;9.87;6.43;;;;;;;;;;5097555;28;20690;-61
2023/11/18 04:30:14;;;;;;;9.40;6.83;;;;;;;;;;5097397;28;20563;-61
2023/11/18 04:32:43;;;;;;;6.37;5.70;;;;;;;;;;5097392;28;20299;-61
2023/11/18 04:35:12;;;;;;;9.70;6.70;;;;;;;;;;5111377;28;20197;-61
2023/11/18 04:37:45;;;;;;;9.07;6.90;;;;;;;;;;5112342;28;20205;-61
2023/11/18 04:40:14;;;;;;;10.97;7.00;;;;;;;;;;5098545;28;20194;-61
2023/11/18 04:42:42;;;;;;;11.17;6.90;;;;;;;;;;5114301;28;20304;-61
2023/11/18 04:45:11;;;;;;;13.20;7.70;;;;;;;;;;5116629;28;20268;-61
2023/11/18 04:47:40;;;;;;;10.43;7.07;;;;;;;;;;5117386;28;20197;-61
2023/11/18 04:50:09;;;;;;;12.03;7.00;;;;;;;;;;5118571;28;20236;-61
2023/11/18 04:52:38;;;;;;;9.57;6.90;;;;;;;;;;5076833;28;20226;-61
2023/11/18 04:55:08;;;;;;;10.70;7.03;;;;;;;;;;5077995;28;20214;-61
2023/11/18 04:57:39;;;;;;;10.00;6.90;;;;;;;;;;5075231;28;20225;-61
2023/11/18 05:00:11;;;;;;;10.30;6.87;;;;;;;;;;5056888;28;20252;-62
2023/11/18 05:02:39;;;;;;;8.73;6.43;;;;;;;;;;5066544;28;20221;-61
2023/11/18 05:05:08;;;;;;;13.13;7.37;;;;;;;;;;5062923;28;20225;-61
2023/11/18 05:07:38;;;;;;;11.73;7.87;;;;;;;;;;5066918;28;20658;-61
2023/11/18 05:10:09;;;;;;;10.93;7.20;;;;;;;;;;5057331;28;20725;-61
2023/11/18 05:12:39;;;;;;;9.73;6.80;;;;;;;;;;5069595;28;20222;-61
2023/11/18 05:15:08;;;;;;;10.60;7.37;;;;;;;;;;5076310;28;20206;-61
2023/11/18 05:17:38;;;;;;;9.97;7.43;;;;;;;;;;5074880;28;20229;-62
2023/11/18 05:20:08;;;;;;;10.10;7.20;;;;;;;;;;5082107;28;20229;-61
2023/11/18 05:22:37;;;;;;;8.47;6.80;;;;;;;;;;5086402;28;20274;-61
2023/11/18 05:25:09;;;;;;;13.27;6.67;;;;;;;;;;5083050;28;20289;-61
2023/11/18 05:27:39;;;;;;;9.53;6.50;;;;;;;;;;5084088;28;20218;-61
2023/11/18 05:30:09;;;;;;;8.03;6.50;;;;;;;;;;5074566;28;20247;-61
2023/11/18 05:32:40;;;;;;;8.03;6.77;;;;;;;;;;5060806;28;20226;-61
2023/11/18 05:35:12;;;;;;;7.30;6.30;;;;;;;;;;5073888;28;20250;-61
2023/11/18 05:37:41;;;;;;;6.87;5.87;;;;;;;;;;5079178;28;20198;-61
2023/11/18 05:40:15;;;;;;;8.13;5.67;;;;;;;;;;5087270;28;20194;-61
2023/11/18 05:42:46;;;;;;;7.00;5.83;;;;;;;;;;5085325;28;20295;-61
2023/11/18 05:45:27;;;;;;;8.53;6.23;;;;;;;;;;5061936;28;20206;-61
2023/11/18 05:47:56;;;;;;;8.23;6.03;;;;;;;;;;5061584;28;20203;-61
2023/11/18 05:50:26;;;;;;;8.43;6.10;;;;;;;;;;5068060;28;20241;-61
2023/11/18 05:52:54;;;;;;;7.40;5.80;;;;;;;;;;5101399;28;20260;-61
2023/11/18 05:55:24;;;;;;;7.10;5.53;;;;;;;;;;5104789;28;20259;-61
2023/11/18 05:57:53;;;;;;;8.20;5.87;;;;;;;;;;5101380;28;20217;-61
2023/11/18 06:00:24;;;;;;;9.27;6.67;;;;;;;;;;5105484;27;20208;-62
2023/11/18 06:03:02;;;;;;;9.23;6.07;;;;;;;;;;5100987;28;20591;-61
2023/11/18 06:05:34;;;;;;;9.43;6.40;;;;;;;;;;5101442;28;20213;-61
2023/11/18 06:08:05;;;;;;;8.73;6.60;;;;;;;;;;5101001;28;20279;-61
2023/11/18 06:10:35;;;;;;;8.17;6.13;;;;;;;;;;5101323;28;20221;-61
2023/11/18 06:13:05;;;;;;;9.67;6.37;;;;;;;;;;5101249;28;20587;-61
2023/11/18 06:15:35;;;;;;;7.33;5.93;;;;;;;;;;5109328;28;20200;-61
2023/11/18 06:18:04;;;;;;;10.77;6.30;;;;;;;;;;5117994;27;20572;-62
2023/11/18 06:20:35;;;;;;;6.83;5.73;;;;;;;;;;5101173;28;20255;-62
2023/11/18 06:23:04;;;;;;;9.97;6.20;;;;;;;;;;5108466;28;20748;-62
2023/11/18 06:25:34;;;;;;;8.33;6.23;;;;;;;;;;5121246;28;20204;-62
2023/11/18 06:28:07;;;;;;;8.23;5.83;;;;;;;;;;5120023;28;20212;-62
2023/11/18 06:30:36;;;;;;;14.63;8.63;;;;;;;;;;5100255;28;20221;-62
2023/11/18 06:33:04;;;;;;;10.10;6.77;;;;;;;;;;5105856;28;20647;-63
2023/11/18 06:35:34;;;;;;;10.83;7.37;;;;;;;;;;5109741;28;20563;-62
2023/11/18 06:38:02;;;;;;;9.97;7.17;;;;;;;;;;5114587;28;20254;-61
2023/11/18 06:40:31;;;;;;;8.10;6.50;;;;;;;;;;5113342;28;20212;-62
2023/11/18 06:43:02;;;;;;;7.97;6.20;;;;;;;;;;5119222;28;20224;-62
2023/11/18 06:45:32;;;;;;;9.70;6.20;;;;;;;;;;5120009;28;20197;-63
2023/11/18 06:48:00;;;;;;;8.47;6.37;;;;;;;;;;5120440;28;20311;-62
2023/11/18 06:50:29;;;;;;;10.83;6.97;;;;;;;;;;5104596;28;20217;-62
2023/11/18 06:52:58;;;;;;;10.10;6.07;;;;;;;;;;5100554;28;20226;-62
2023/11/18 06:55:27;;;;;;;8.27;7.00;;;;;;;;;;5099949;28;20664;-62
2023/11/18 06:57:56;;;;;;;10.13;6.53;;;;;;;;;;5100224;28;20619;-62
2023/11/18 07:00:27;;;;;;;7.93;6.30;;;;;;;;;;5103234;28;20201;-62
2023/11/18 07:02:58;;;;;;;10.90;6.90;;;;;;;;;;5103576;28;20692;-60
2023/11/18 07:05:27;;;;;;;9.27;6.90;;;;;;;;;;5106810;28;20208;-62
2023/11/18 07:07:55;;;;;;;8.23;5.83;;;;;;;;;;5120539;28;20201;-62
2023/11/18 07:10:23;;;;;;;8.00;6.33;;;;;;;;;;5119279;28;20683;-62
2023/11/18 07:12:51;;;;;;;9.43;6.43;;;;;;;;;;5120165;27;20227;-61
2023/11/18 07:15:20;;;;;;;9.37;5.90;;;;;;;;;;5105048;28;20205;-62
2023/11/18 07:17:48;;;;;;;11.63;6.43;;;;;;;;;;5119533;28;20234;-63
2023/11/18 07:20:18;;;;;;;8.10;6.50;;;;;;;;;;5099648;28;20222;-62
2023/11/18 07:22:47;;;;;;;8.97;6.90;;;;;;;;;;5119356;28;20242;-62
2023/11/18 07:25:15;;;;;;;9.53;6.90;;;;;;;;;;5110813;28;20263;-67
2023/11/18 07:27:44;;;;;;;11.23;6.40;;;;;;;;;;5099556;28;20229;-67
2023/11/18 07:30:13;;;;;;;10.43;6.67;;;;;;;;;;5101973;28;20221;-70
2023/11/18 07:32:42;;;;;;;9.43;6.60;;;;;;;;;;5101058;27;20603;-71
2023/11/18 07:35:11;;;;;;;8.23;6.73;;;;;;;;;;5098837;28;20216;-71
2023/11/18 07:37:41;;;;;;;8.70;6.73;;;;;;;;;;5099317;28;20316;-72
2023/11/18 07:40:13;;;;;;;9.10;6.73;;;;;;;;;;5099083;28;20236;-72
2023/11/18 07:42:49;;;;;;;11.37;7.90;;;;;;;;;;5115724;28;20303;-71
2023/11/18 07:45:18;;;;;;;13.50;7.80;;;;;;;;;;5112030;27;20213;-71
2023/11/18 07:47:46;;;;;;;9.00;7.13;;;;;;;;;;5119712;28;20236;-71
2023/11/18 07:50:17;;;;;;;9.57;7.10;;;;;;;;;;5118294;28;20270;-71
2023/11/18 07:52:47;;;;;;;11.57;7.17;;;;;;;;;;5119588;28;20231;-72
2023/11/18 07:55:17;;;;;;;11.53;7.80;;;;;;;;;;5101004;28;20210;-71
2023/11/18 07:57:46;;;;;;;9.67;7.53;;;;;;;;;;5119370;28;20205;-70
2023/11/18 08:00:15;;;;;;;9.47;6.93;;;;;;;;;;5109782;28;20217;-70
2023/11/18 08:02:45;;;;;;;8.60;6.50;;;;;;;;;;5101666;27;20287;-70
2023/11/18 08:05:14;;;;;;;9.63;7.40;;;;;;;;;;5099453;28;20206;-71
2023/11/18 08:07:44;;;;;;;7.43;6.43;;;;;;;;;;5119036;28;20201;-70
2023/11/18 08:10:18;;;;;;;10.53;6.73;;;;;;;;;;5102821;28;20262;-70
2023/11/18 08:12:47;;;;;;;9.63;7.10;;;;;;;;;;5109669;28;20266;-71
2023/11/18 08:15:16;;;;;;;8.37;7.47;;;;;;;;;;5111613;28;20291;-70
2023/11/18 08:17:44;;;;;;;8.83;6.77;;;;;;;;;;5098889;28;20244;-69
2023/11/18 08:20:14;;;;;;;11.17;7.33;;;;;;;;;;5098613;28;20263;-70
2023/11/18 08:22:44;;;;;;;10.57;7.27;;;;;;;;;;5098440;28;20692;-70
2023/11/18 08:25:14;;;;;;;10.60;7.43;;;;;;;;;;5098652;28;20202;-70
2023/11/18 08:27:43;;;;;;;8.93;6.93;;;;;;;;;;5108451;28;20201;-70
2023/11/18 08:30:12;;;;;;;7.87;7.00;;;;;;;;;;5105372;28;20292;-72
2023/11/18 08:32:43;;;;;;;9.27;7.40;;;;;;;;;;5098304;28;20237;-71
2023/11/18 08:35:13;;;;;;;11.80;7.43;;;;;;;;;;5113778;28;20204;-70
2023/11/18 08:37:42;;;;;;;12.47;7.70;;;;;;;;;;5112093;28;20204;-70
2023/11/18 08:40:14;;;;;;;10.43;7.30;;;;;;;;;;5115010;28;20247;-70
2023/11/18 08:42:49;;;;;;;8.53;6.60;;;;;;;;;;5106565;28;20278;-71
2023/11/18 08:45:21;;;;;;;11.17;7.23;;;;;;;;;;5107784;28;20197;-71
2023/11/18 08:47:52;;;;;;;13.63;7.53;;;;;;;;;;5116606;28;20201;-68
2023/11/18 08:50:23;;;;;;;11.83;8.57;;;;;;;;;;5102561;28;20198;-67
2023/11/18 08:52:57;;;;;;;7.60;6.73;;;;;;;;;;5098219;28;20256;-68
2023/11/18 08:55:38;;;;;;;9.70;7.00;;;;;;;;;;5098018;28;20232;-68
2023/11/18 08:58:18;;;;;;;10.73;7.03;;;;;;;;;;5109915;28;20230;-68
2023/11/18 09:00:52;;;;;;;9.80;6.80;;;;;;;;;;5096371;28;20212;-68
2023/11/18 09:03:27;;;;;;;12.13;7.30;;;;;;;;;;5096923;28;20205;-68
2023/11/18 09:06:03;;;;;;;12.87;7.17;;;;;;;;;;5101088;28;20205;-68
2023/11/18 09:08:34;;;;;;;14.57;7.37;;;;;;;;;;5097378;28;20668;-68
2023/11/18 09:11:04;;;;;;;10.93;7.30;;;;;;;;;;5097170;28;20225;-68
2023/11/18 09:13:35;;;;;;;9.27;7.03;;;;;;;;;;5104752;27;20227;-68
2023/11/18 09:16:08;;;;;;;10.07;7.70;;;;;;;;;;5098112;28;20209;-68
2023/11/18 09:18:38;;;;;;;10.57;8.60;;;;;;;;;;5097554;28;20210;-68
2023/11/18 09:21:14;;;;;;;12.03;6.80;;;;;;;;;;5097667;28;20223;-68
2023/11/18 09:23:45;;;;;;;10.57;6.60;;;;;;;;;;5110453;28;20205;-68
2023/11/18 09:26:14;;;;;;;7.97;6.83;;;;;;;;;;5116810;28;20200;-68
2023/11/18 09:28:45;;;;;;;16.10;7.63;;;;;;;;;;5111735;28;20235;-67
2023/11/18 09:31:14;;;;;;;15.53;7.37;;;;;;;;;;5096515;28;20700;-68
2023/11/18 09:33:46;;;;;;;11.77;7.47;;;;;;;;;;5102902;28;20199;-68
2023/11/18 09:36:18;;;;;;;9.20;7.23;;;;;;;;;;5116684;28;20205;-68
2023/11/18 09:38:46;;;;;;;11.60;6.60;;;;;;;;;;5111428;28;20216;-68
2023/11/18 09:41:16;;;;;;;12.60;6.57;;;;;;;;;;5106485;28;20216;-68
2023/11/18 09:43:47;;;;;;;10.63;7.23;;;;;;;;;;5097231;28;20194;-68
2023/11/18 09:46:18;;;;;;;8.60;6.63;;;;;;;;;;5096961;28;20217;-68
2023/11/18 09:48:49;;;;;;;11.47;6.13;;;;;;;;;;5111577;28;20232;-68
2023/11/18 09:51:22;;;;;;;9.43;6.47;;;;;;;;;;5116081;28;20228;-67
2023/11/18 09:53:52;;;;;;;8.47;6.60;;;;;;;;;;5101999;28;20197;-68
2023/11/18 09:56:27;;;;;;;9.50;6.27;;;;;;;;;;5102767;28;20202;-68
2023/11/18 09:59:03;;;;;;;10.23;5.97;;;;;;;;;;5100176;28;20224;-68
2023/11/18 10:01:37;;;;;;;10.23;6.10;;;;;;;;;;5095729;28;20265;-68
2023/11/18 10:04:07;;;;;;;7.77;5.20;;;;;;;;;;5109204;28;20248;-66
2023/11/18 10:06:36;;;;;;;9.83;5.37;;;;;;;;;;5116636;28;20265;-67
2023/11/18 10:09:15;;;;;;;6.77;5.33;;;;;;;;;;5111940;28;20285;-66
2023/11/18 10:11:46;;;;;;;7.83;4.90;;;;;;;;;;5097767;28;20271;-68
2023/11/18 10:14:16;;;;;;;9.13;5.77;;;;;;;;;;5097111;28;20205;-69
2023/11/18 10:16:47;;;;;;;7.30;5.63;;;;;;;;;;5104240;28;20649;-67
2023/11/18 10:19:17;;;;;;;7.03;5.07;;;;;;;;;;5096977;28;20209;-67
2023/11/18 10:21:48;;;;;;;7.30;4.97;;;;;;;;;;5097360;28;20222;-67
2023/11/18 10:24:19;;;;;;;8.17;4.70;;;;;;;;;;5099572;28;20209;-68
2023/11/18 10:26:56;;;;;;;6.93;4.93;;;;;;;;;;5101329;28;20202;-67
2023/11/18 10:29:28;;;;;;;5.50;4.50;;;;;;;;;;5117026;28;20208;-67
2023/11/18 10:32:09;;;;;;;4.83;4.00;;;;;;;;;;5106128;28;20274;-67
2023/11/18 10:34:39;;;;;;;4.87;4.00;;;;;;;;;;5123951;27;20257;-67
2023/11/18 10:44:09;;;;;;;5.97;4.33;;;;;;;;;;5129046;27;20188;-67
2023/11/18 10:46:41;;;;;;;6.17;3.90;;;;;;;;;;5127944;27;20205;-67
2023/11/18 10:49:10;;;;;;;6.63;5.07;;;;;;;;;;5099725;28;20289;-67
2023/11/18 10:51:40;;;;;;;5.93;5.30;;;;;;;;;;5099270;28;20248;-67
2023/11/18 10:54:15;;;;;;;6.83;5.60;;;;;;;;;;5099926;28;20205;-67
2023/11/18 10:56:47;;;;;;;7.97;5.53;;;;;;;;;;5099940;28;20254;-67
2023/11/18 10:59:16;;;;;;;6.63;3.90;;;;;;;;;;5103529;28;20212;-67
2023/11/18 11:01:48;;;;;;;6.27;4.03;;;;;;;;;;5099789;28;20221;-67
2023/11/18 11:04:20;;;;;;;5.27;4.33;;;;;;;;;;5112135;28;20205;-67
2023/11/18 11:06:56;;;;;;;6.40;3.53;;;;;;;;;;5099646;28;20255;-67
2023/11/18 11:09:27;;;;;;;6.33;3.90;;;;;;;;;;5099549;28;20247;-67
2023/11/18 11:11:59;;;;;;;6.10;4.20;;;;;;;;;;5099887;28;20253;-67
2023/11/18 11:14:36;;;;;;;6.40;3.90;;;;;;;;;;5099619;28;20212;-67
2023/11/18 11:17:13;;;;;;;4.27;3.33;;;;;;;;;;5099430;28;20208;-67
2023/11/18 11:19:55;;;;;;;6.57;3.70;;;;;;;;;;5098803;28;20251;-67
2023/11/18 11:22:25;;;;;;;7.53;4.10;;;;;;;;;;5118386;28;20217;-67
2023/11/18 11:24:59;;;;;;;5.00;3.33;;;;;;;;;;5103896;28;20202;-67
2023/11/18 11:27:38;;;;;;;5.80;3.67;;;;;;;;;;5099611;28;20205;-66
2023/11/18 11:30:13;;;;;;;3.97;3.57;;;;;;;;;;5099258;28;20202;-67
2023/11/18 11:32:53;;;;;;;8.70;3.57;;;;;;;;;;5097979;28;20664;-67
2023/11/18 11:35:24;;;;;;;6.40;3.90;;;;;;;;;;5096594;28;20204;-67
2023/11/18 11:38:02;;;;;;;5.60;3.90;;;;;;;;;;5098958;28;20210;-67
2023/11/18 11:40:31;;;;;;;4.27;3.50;;;;;;;;;;5112317;28;20224;-67
2023/11/18 11:43:04;;;;;;;5.47;3.93;;;;;;;;;;5105757;28;20221;-67
2023/11/18 11:45:34;;;;;;;6.37;4.33;;;;;;;;;;5099109;28;20220;-67
2023/11/18 11:50:55;;;;;;;4.87;3.20;;;;;;;;;;5099047;28;20244;-67
2023/11/18 11:53:31;;;;;;;4.17;3.67;;;;;;;;;;5101630;28;20261;-72
2023/11/18 11:56:06;;;;;;;4.73;3.27;;;;;;;;;;5119767;28;20269;-71
2023/11/18 11:58:36;;;;;;;7.13;3.80;;;;;;;;;;5117090;28;20239;-72
2023/11/18 12:01:18;;;;;;;4.60;3.63;;;;;;;;;;5102142;28;20212;-72
2023/11/18 12:03:49;;;;;;;5.07;3.50;;;;;;;;;;5097917;28;20201;-71
2023/11/18 12:06:23;;;;;;;6.90;3.67;;;;;;;;;;5102670;28;20224;-75
2023/11/18 12:08:52;;;;;;;5.03;3.23;;;;;;;;;;5106776;28;20271;-68
2023/11/18 12:11:22;;;;;;;4.40;2.97;;;;;;;;;;5099353;28;20263;-68
2023/11/18 12:14:09;;;;;;;3.80;3.20;;;;;;;;;;5098753;28;20581;-66
2023/11/18 12:16:57;;;;;;;5.63;3.40;;;;;;;;;;5110548;28;20218;-69
2023/11/18 12:19:37;;;;;;;3.27;2.70;;;;;;;;;;5107757;28;20659;-69
2023/11/18 12:22:12;;;;;;;4.27;3.53;;;;;;;;;;5098233;28;20632;-68
2023/11/18 12:24:41;;;;;;;3.57;2.90;;;;;;;;;;5098323;28;20562;-68
2023/11/18 12:27:10;;;;;;;3.50;2.90;;;;;;;;;;5103967;28;20226;-68
2023/11/18 12:29:43;;;;;;;4.20;3.80;;;;;;;;;;5097227;28;20194;-69
2023/11/18 12:32:16;;;;;;;3.30;2.57;;;;;;;;;;5094158;28;20312;-69
2023/11/18 12:34:53;;;;;;;6.10;2.70;;;;;;;;;;5093820;28;20224;-67
2023/11/18 12:37:41;;;;;;;5.40;2.87;;;;;;;;;;5094413;28;20280;-67
2023/11/18 12:40:17;;;;;;;2.93;2.40;;;;;;;;;;5093154;28;20209;-68
2023/11/18 12:42:59;;;;;;;5.07;2.70;;;;;;;;;;5093392;28;20307;-67
2023/11/18 12:45:43;;;;;;;3.77;2.53;;;;;;;;;;5092576;28;20197;-68
2023/11/18 12:48:16;;;;;;;4.83;2.17;;;;;;;;;;5093899;27;20676;-68
2023/11/18 12:50:55;;;;;;;3.03;2.20;;;;;;;;;;5094804;28;20228;-69
2023/11/18 12:53:25;;;;;;;3.27;2.03;;;;;;;;;;5094142;28;20224;-67
2023/11/18 12:55:54;;;;;;;2.73;2.03;;;;;;;;;;5094026;28;20361;-67
2023/11/18 12:58:23;;;;;;;1.90;1.50;;;;;;;;;;5099774;28;20201;-67
2023/11/18 13:00:51;;;;;;;2.03;1.80;;;;;;;;;;5095777;28;20683;-67
2023/11/18 13:03:20;;;;;;;6.10;2.10;;;;;;;;;;5092769;28;20198;-68
2023/11/18 13:05:51;;;;;;;1.63;1.40;;;;;;;;;;5093465;28;20635;-67
2023/11/18 13:08:22;;;;;;;2.67;1.53;;;;;;;;;;5093108;28;21825;-68
2023/11/18 13:10:52;;;;;;;2.87;1.97;;;;;;;;;;5090981;28;20198;-69
2023/11/18 13:13:22;;;;;;;1.97;1.60;;;;;;;;;;5092206;28;20281;-67
2023/11/18 13:15:51;;;;;;;1.30;1.20;;;;;;;;;;5094824;28;20213;-67
2023/11/18 13:18:19;;;;;;;1.70;1.60;;;;;;;;;;5094157;28;20254;-66
2023/11/18 13:20:57;;;;;;;1.17;1.10;;;;;;;;;;5092571;28;20206;-66
2023/11/18 13:23:30;;;;;;;1.53;1.40;;;;;;;;;;5092989;28;20193;-67
2023/11/18 13:25:59;;;;;;;3.07;1.60;;;;;;;;;;5101182;28;20293;-66
2023/11/18 13:28:29;;;;;;;4.33;1.60;;;;;;;;;;5098280;28;20296;-66
2023/11/18 13:30:58;;;;;;;1.50;1.40;;;;;;;;;;5091647;28;20284;-66
2023/11/18 13:33:26;;;;;;;1.80;1.63;;;;;;;;;;5093068;28;20214;-67
2023/11/18 13:35:57;;;;;;;1.67;1.50;;;;;;;;;;5095447;28;20197;-67
2023/11/18 13:38:27;;;;;;;2.30;1.70;;;;;;;;;;5090943;28;20227;-67
2023/11/18 13:40:55;;;;;;;1.90;1.80;;;;;;;;;;5093448;28;20205;-67
2023/11/18 13:43:23;;;;;;;2.87;1.63;;;;;;;;;;5092203;28;20565;-67
2023/11/18 13:45:52;;;;;;;2.27;1.53;;;;;;;;;;5096005;28;20201;-67
2023/11/18 13:48:23;;;;;;;2.07;1.60;;;;;;;;;;5090911;28;20720;-67
2023/11/18 13:50:53;;;;;;;2.20;1.50;;;;;;;;;;5092264;28;20232;-67
2023/11/18 13:53:23;;;;;;;2.23;1.50;;;;;;;;;;5095532;28;20206;-67
2023/11/18 13:55:51;;;;;;;1.67;1.57;;;;;;;;;;5092090;28;20255;-67
2023/11/18 13:58:19;;;;;;;2.63;1.83;;;;;;;;;;5101172;28;20214;-68
2023/11/18 14:00:48;;;;;;;2.77;1.90;;;;;;;;;;5096267;28;20236;-68
2023/11/18 14:03:17;;;;;;;2.23;1.63;;;;;;;;;;5096034;27;20231;-67
2023/11/18 14:05:46;;;;;;;1.60;1.50;;;;;;;;;;5096908;28;20229;-67
2023/11/18 14:08:23;;;;;;;2.63;1.90;;;;;;;;;;5110478;28;20201;-67
2023/11/18 14:10:52;;;;;;;2.47;1.50;;;;;;;;;;5111688;28;20258;-66
2023/11/18 14:13:30;;;;;;;1.67;1.43;;;;;;;;;;5100951;28;20205;-67
2023/11/18 14:15:59;;;;;;;1.53;1.43;;;;;;;;;;5101459;28;20210;-67
2023/11/18 14:18:30;;;;;;;1.50;1.40;;;;;;;;;;5101207;28;20198;-67
2023/11/18 14:21:00;;;;;;;1.43;1.23;;;;;;;;;;5108236;28;20209;-67
2023/11/18 14:23:28;;;;;;;1.80;1.27;;;;;;;;;;5121772;28;20211;-67
2023/11/18 14:25:58;;;;;;;3.30;1.37;;;;;;;;;;5114699;28;20201;-67
2023/11/18 14:28:27;;;;;;;1.70;1.53;;;;;;;;;;5113934;28;20202;-67
2023/11/18 14:30:55;;;;;;;1.80;1.70;;;;;;;;;;5099586;28;20213;-67
2023/11/18 14:33:24;;;;;;;2.73;1.27;;;;;;;;;;5115738;28;20734;-66
2023/11/18 14:36:05;;;;;;;4.93;1.67;;;;;;;;;;5099855;28;20218;-66
2023/11/18 14:38:34;;;;;;;2.10;1.80;;;;;;;;;;5100104;28;20251;-66
2023/11/18 14:41:07;;;;;;;2.33;1.73;;;;;;;;;;5102421;28;20616;-66
2023/11/18 14:43:38;;;;;;;1.73;1.63;;;;;;;;;;5099880;28;20653;-66
2023/11/18 14:46:14;;;;;;;1.53;1.40;;;;;;;;;;5101717;27;20208;-68
2023/11/18 14:48:42;;;;;;;2.60;1.70;;;;;;;;;;5100136;28;20229;-66
2023/11/18 14:51:10;;;;;;;2.67;1.73;;;;;;;;;;5099953;28;20267;-66
2023/11/18 14:53:38;;;;;;;2.53;1.60;;;;;;;;;;5099899;28;20648;-67
2023/11/18 14:56:08;;;;;;;1.70;1.60;;;;;;;;;;5100611;28;20206;-67
2023/11/18 14:58:49;;;;;;;3.80;1.60;;;;;;;;;;5103099;28;20193;-66
2023/11/18 15:01:29;;;;;;;2.13;1.90;;;;;;;;;;5106483;28;20229;-67
2023/11/18 15:03:59;;;;;;;2.83;2.30;;;;;;;;;;5099539;28;20209;-65
2023/11/18 15:06:27;;;;;;;1.73;1.57;;;;;;;;;;5099203;28;20741;-66
2023/11/18 15:08:56;;;;;;;2.03;1.57;;;;;;;;;;5099665;28;20198;-67